Terminal Aerodrome Forecast
Issued by NWS Louisville, KY

Current Version | Previous Version | Text Only | Print | Product List | Glossary On
Versions: 1 2 3 4 5 6 7 8 9 10 11 12 13 14
000
FTUS43 KLMK 231348 AAA
TAFBWG
TAF AMD
KBWG 231348Z 2314/2412 19011KT P6SM -SHRA VCTS BKN025CB
     FM231600 20010KT P6SM SCT025 BKN060
     FM231800 24011KT P6SM VCTS BKN050CB
      TEMPO 2319/2323 3SM -TSRA BKN035CB
     FM240000 23005KT P6SM VCSH BKN050
     FM240500 22003KT P6SM BKN200
     FM240900 00000KT 2SM BR SCT250=

USA.gov is the U.S. government's official web portal to all federal, state and local government web resources and services.